createdAt,value
2018-09-24T00:02:24.013Z,100534.06
2018-09-24T00:04:52.798Z,100538.91
2018-09-24T00:07:22.260Z,100548.59
2018-09-24T00:09:51.153Z,100550.38
2018-09-24T00:12:20.015Z,100563.02
2018-09-24T00:14:48.836Z,100553.80
2018-09-24T00:17:17.666Z,100565.55
2018-09-24T00:19:46.563Z,100568.86
2018-09-24T00:22:15.558Z,100576.20
2018-09-24T00:24:44.343Z,100578.94
2018-09-24T00:27:13.106Z,100581.11
2018-09-24T00:29:43.198Z,100585.06
2018-09-24T00:32:11.994Z,100594.31
2018-09-24T00:34:40.867Z,100600.92
2018-09-24T00:37:09.788Z,100612.93
2018-09-24T00:39:38.681Z,100616.34
2018-09-24T00:42:07.444Z,100621.23
2018-09-24T00:44:36.256Z,100631.56
2018-09-24T00:47:05.107Z,100636.37
2018-09-24T00:49:33.939Z,100633.61
2018-09-24T00:52:02.759Z,100643.58
2018-09-24T00:54:31.674Z,100630.97
2018-09-24T00:57:00.727Z,100641.33
2018-09-24T00:59:29.562Z,100658.30
2018-09-24T01:01:58.358Z,100654.81
2018-09-24T01:04:27.134Z,100664.37
2018-09-24T01:06:56.040Z,100665.05
2018-09-24T01:09:25.131Z,100669.39
2018-09-24T01:11:54.027Z,100661.48
2018-09-24T01:14:22.869Z,100671.15
2018-09-24T01:16:51.683Z,100683.58
2018-09-24T01:19:20.535Z,100680.58
2018-09-24T01:24:41.654Z,100708.41
2018-09-24T01:27:10.487Z,100705.65
2018-09-24T01:29:42.698Z,100711.67
2018-09-24T01:32:11.641Z,100717.07
2018-09-24T01:34:40.448Z,100724.87
2018-09-24T01:37:09.343Z,100730.76
2018-09-24T01:39:38.235Z,100739.22
2018-09-24T01:42:07.092Z,100736.39
2018-09-24T01:44:35.889Z,100742.98
2018-09-24T01:47:05.082Z,100749.92
2018-09-24T01:49:33.843Z,100755.50
2018-09-24T01:52:02.681Z,100756.16
2018-09-24T01:54:31.827Z,100755.41
2018-09-24T01:57:00.628Z,100765.38
2018-09-24T01:59:29.830Z,100774.80
2018-09-24T02:01:58.675Z,100771.61
2018-09-24T02:04:27.483Z,100775.46
2018-09-24T02:07:01.000Z,100780.08
2018-09-24T02:09:30.224Z,100787.03
2018-09-24T02:12:04.050Z,100792.09
2018-09-24T02:14:33.860Z,100797.56
2018-09-24T02:17:03.023Z,100781.75
2018-09-24T02:19:32.916Z,100788.73
2018-09-24T02:22:02.023Z,100811.14
2018-09-24T02:24:31.200Z,100811.14
2018-09-24T02:26:59.978Z,100819.41
2018-09-24T02:29:28.767Z,100816.77
2018-09-24T02:31:57.606Z,100813.73
2018-09-24T02:34:28.504Z,100814.69
2018-09-24T02:36:57.670Z,100824.28
2018-09-24T02:39:29.263Z,100818.64
2018-09-24T02:41:59.083Z,100831.46
2018-09-24T02:44:28.619Z,100831.72
2018-09-24T02:46:57.541Z,100843.58
2018-09-24T02:49:26.398Z,100845.56
2018-09-24T02:51:55.347Z,100852.91
2018-09-24T02:54:24.207Z,100843.31
2018-09-24T02:56:53.092Z,100862.48
2018-09-24T02:59:21.943Z,100863.02
2018-09-24T03:01:50.918Z,100861.04
2018-09-24T03:04:20.759Z,100863.00
2018-09-24T03:06:49.619Z,100869.59
2018-09-24T03:09:19.059Z,100870.14
2018-09-24T03:11:48.217Z,100876.46
2018-09-24T03:14:24.011Z,100878.89
2018-09-24T03:16:53.602Z,100879.48
2018-09-24T03:19:22.743Z,100885.39
2018-09-24T03:21:51.643Z,100900.47
2018-09-24T03:24:20.424Z,100899.54
2018-09-24T03:26:49.382Z,100897.06
2018-09-24T03:29:25.592Z,100913.65
2018-09-24T03:31:54.464Z,100918.17
2018-09-24T03:34:23.275Z,100920.43
2018-09-24T03:36:53.103Z,100931.36
2018-09-24T03:39:21.981Z,100927.80
2018-09-24T03:41:51.411Z,100925.44
2018-09-24T03:44:20.266Z,100929.89
2018-09-24T03:46:49.272Z,100932.24
2018-09-24T03:49:18.130Z,100932.34
2018-09-24T03:51:46.984Z,100933.67
2018-09-24T03:54:15.850Z,100936.31
2018-09-24T03:56:47.298Z,100949.40
2018-09-24T03:59:16.443Z,100945.53
2018-09-24T04:01:45.364Z,100947.33
2018-09-24T04:04:19.461Z,100926.62
2018-09-24T04:06:53.406Z,100949.14
2018-09-24T04:09:27.451Z,100938.20
2018-09-24T04:12:01.540Z,100954.78
2018-09-24T04:14:35.608Z,100944.63
2018-09-24T04:17:09.763Z,100965.23
2018-09-24T04:19:43.867Z,100964.58
2018-09-24T04:22:17.940Z,100956.30
2018-09-24T04:24:52.037Z,100969.09
2018-09-24T04:27:26.026Z,100973.80
2018-09-24T04:30:00.760Z,100974.16
2018-09-24T04:32:35.072Z,100983.98
2018-09-24T04:35:09.124Z,100984.91
2018-09-24T04:37:43.168Z,100985.31
2018-09-24T04:40:17.104Z,100941.94
2018-09-24T04:42:51.055Z,100991.70
2018-09-24T04:45:24.974Z,100992.27
2018-09-24T04:47:58.843Z,100999.27
2018-09-24T04:50:32.730Z,100994.34
2018-09-24T04:53:06.697Z,101003.22
2018-09-24T04:55:40.795Z,101005.46
2018-09-24T04:58:14.720Z,101014.33
2018-09-24T05:00:48.864Z,101005.85
2018-09-24T05:03:22.806Z,101009.71
2018-09-24T05:05:56.901Z,101004.53
2018-09-24T05:08:30.784Z,101020.62
2018-09-24T05:11:04.707Z,101007.06
2018-09-24T05:13:39.954Z,101045.57
2018-09-24T05:16:14.212Z,101053.33
2018-09-24T05:18:48.352Z,101052.37
2018-09-24T05:21:22.609Z,101044.92
2018-09-24T05:23:56.694Z,101049.09
2018-09-24T05:26:31.097Z,101040.88
2018-09-24T05:29:05.113Z,101044.67
2018-09-24T05:31:39.156Z,101051.17
2018-09-24T05:34:13.256Z,101058.14
2018-09-24T05:36:47.308Z,101059.34
2018-09-24T05:39:21.318Z,101064.30
2018-09-24T05:41:55.279Z,101060.23
2018-09-24T05:44:29.347Z,101052.31
2018-09-24T05:47:03.476Z,101068.20
2018-09-24T05:49:37.443Z,101069.08
2018-09-24T05:52:11.394Z,101080.78
2018-09-24T05:54:45.379Z,101083.39
2018-09-24T05:57:19.468Z,101082.86
2018-09-24T05:59:54.223Z,101088.44
2018-09-24T06:02:28.474Z,101104.97
2018-09-24T06:05:02.652Z,101106.30
2018-09-24T06:07:36.873Z,101102.49
2018-09-24T06:10:12.491Z,101107.30
2018-09-24T06:13:17.572Z,101101.09
2018-09-24T06:15:52.297Z,101112.81
2018-09-24T06:18:26.772Z,101116.52
2018-09-24T06:21:02.405Z,101110.99
2018-09-24T06:23:38.800Z,101105.59
2018-09-24T06:26:13.311Z,101124.28
2018-09-24T06:28:49.744Z,101128.98
2018-09-24T06:31:28.300Z,101133.62
2018-09-24T06:34:03.259Z,101122.47
2018-09-24T06:36:37.312Z,101138.27
2018-09-24T06:39:13.246Z,101154.08
2018-09-24T06:41:47.730Z,101148.34
2018-09-24T06:44:21.671Z,101142.70
2018-09-24T06:46:56.604Z,101154.53
2018-09-24T06:49:31.279Z,101158.36
2018-09-24T06:52:06.274Z,101158.59
2018-09-24T06:54:40.947Z,101164.86
2018-09-24T06:57:15.488Z,101162.09
2018-09-24T06:59:49.703Z,101174.52
2018-09-24T07:02:23.925Z,101183.17
2018-09-24T07:04:58.864Z,101166.11
2018-09-24T07:07:34.230Z,101192.06
2018-09-24T07:10:08.341Z,101193.59
2018-09-24T07:12:42.514Z,101211.11
2018-09-24T07:15:16.493Z,101199.86
2018-09-24T07:17:50.944Z,101226.84
2018-09-24T07:20:25.046Z,101234.80
2018-09-24T07:22:58.989Z,101233.73
2018-09-24T07:25:33.038Z,101235.88
2018-09-24T07:28:06.993Z,101236.73
2018-09-24T07:30:40.901Z,101250.50
2018-09-24T07:33:14.891Z,101256.12
2018-09-24T07:35:48.840Z,101258.97
2018-09-24T07:38:22.779Z,101259.06
2018-09-24T07:40:57.270Z,101256.72
2018-09-24T07:43:31.654Z,101272.30
2018-09-24T07:48:46.006Z,101264.86
2018-09-24T07:51:20.094Z,101249.41
2018-09-24T07:53:54.099Z,101285.70
2018-09-24T07:56:29.383Z,101290.03
2018-09-24T07:59:03.521Z,101293.50
2018-09-24T08:01:37.554Z,101306.01
2018-09-24T08:04:11.515Z,101307.99
2018-09-24T08:06:46.136Z,101296.77
2018-09-24T08:09:20.321Z,101314.33
2018-09-24T08:11:56.608Z,101310.64
2018-09-24T08:17:38.444Z,101317.36
2018-09-24T08:20:13.340Z,101318.94
2018-09-24T08:22:47.711Z,101313.65
2018-09-24T08:25:21.837Z,101323.81
2018-09-24T08:27:57.723Z,101326.61
2018-09-24T08:30:34.063Z,101324.69
2018-09-24T08:33:08.211Z,101345.72
2018-09-24T08:35:42.272Z,101325.47
2018-09-24T08:38:16.365Z,101335.77
2018-09-24T08:40:50.341Z,101339.04
2018-09-24T08:43:24.254Z,101354.00
2018-09-24T08:45:58.225Z,101358.11
2018-09-24T08:48:33.208Z,101353.62
2018-09-24T08:51:07.318Z,101352.92
2018-09-24T08:53:41.274Z,101328.95
2018-09-24T08:56:15.290Z,101361.74
2018-09-24T08:58:49.252Z,101369.05
2018-09-24T09:01:23.227Z,101371.61
2018-09-24T09:04:00.701Z,101373.59
2018-09-24T09:06:37.143Z,101387.23
2018-09-24T09:09:15.315Z,101387.06
2018-09-24T09:11:49.718Z,101397.50
2018-09-24T09:14:24.007Z,101387.46
2018-09-24T09:17:00.515Z,101383.80
2018-09-24T09:19:36.517Z,101393.72
2018-09-24T09:22:10.834Z,101396.52
2018-09-24T09:24:46.317Z,101402.95
2018-09-24T09:27:20.385Z,101398.17
2018-09-24T09:29:54.510Z,101393.50
2018-09-24T09:32:28.444Z,101390.92
2018-09-24T09:35:03.024Z,101412.77
2018-09-24T09:37:38.677Z,101405.65
2018-09-24T09:40:12.936Z,101412.20
2018-09-24T09:42:48.848Z,101425.62
2018-09-24T09:45:22.783Z,101421.83
2018-09-24T09:47:56.887Z,101402.53
2018-09-24T09:50:31.257Z,101416.57
2018-09-24T09:53:05.218Z,101419.51
2018-09-24T09:55:39.353Z,101417.27
2018-09-24T09:58:13.503Z,101419.63
2018-09-24T10:00:47.465Z,101403.84
2018-09-24T10:03:27.130Z,101402.65
2018-09-24T10:06:01.309Z,101421.02
2018-09-24T10:08:35.675Z,101418.12
2018-09-24T10:11:10.440Z,101422.47
2018-09-24T10:13:44.544Z,101430.52
2018-09-24T10:16:18.494Z,101416.57
2018-09-24T10:18:52.637Z,101426.41
2018-09-24T10:21:29.649Z,101425.39
2018-09-24T10:24:04.237Z,101429.25
2018-09-24T10:26:38.322Z,101424.88
2018-09-24T10:29:12.645Z,101440.86
2018-09-24T10:31:47.158Z,101443.06
2018-09-24T10:34:21.271Z,101443.87
2018-09-24T10:36:55.444Z,101434.91
2018-09-24T10:39:30.655Z,101446.42
2018-09-24T10:42:04.534Z,101458.02
2018-09-24T10:44:40.655Z,101438.45
2018-09-24T10:47:14.815Z,101434.23
2018-09-24T10:49:49.204Z,101446.27
2018-09-24T10:52:23.197Z,101449.61
2018-09-24T10:54:57.305Z,101437.41
2018-09-24T10:57:31.451Z,101443.48
2018-09-24T11:00:05.590Z,101440.05
2018-09-24T11:02:39.425Z,101436.80
2018-09-24T11:05:13.432Z,101425.14
2018-09-24T11:07:47.439Z,101457.36
2018-09-24T11:10:21.504Z,101454.14
2018-09-24T11:12:55.430Z,101449.35
2018-09-24T11:15:29.871Z,101459.91
2018-09-24T11:18:04.242Z,101463.02
2018-09-24T11:20:38.931Z,101459.62
2018-09-24T11:23:13.145Z,101468.31
2018-09-24T11:25:47.034Z,101461.52
2018-09-24T11:28:20.943Z,101466.06
2018-09-24T11:30:54.954Z,101470.98
2018-09-24T11:33:29.099Z,101489.98
2018-09-24T11:36:03.141Z,101475.46
2018-09-24T11:38:40.204Z,101483.89
2018-09-24T11:41:14.324Z,101485.12
2018-09-24T11:43:51.146Z,101472.70
2018-09-24T11:46:25.305Z,101466.64
2018-09-24T11:49:00.040Z,101460.98
2018-09-24T11:51:37.730Z,101470.12
2018-09-24T11:54:11.803Z,101472.30
2018-09-24T11:56:45.829Z,101484.01
2018-09-24T11:59:19.819Z,101497.38
2018-09-24T12:01:53.782Z,101507.87
2018-09-24T12:04:30.976Z,101489.56
2018-09-24T12:07:06.247Z,101507.92
2018-09-24T12:09:44.116Z,101511.54
2018-09-24T12:12:19.955Z,101505.70
2018-09-24T12:14:53.978Z,101508.98
2018-09-24T12:17:28.403Z,101499.44
2018-09-24T12:20:03.100Z,101499.54
2018-09-24T12:22:37.088Z,101499.89
2018-09-24T12:25:11.208Z,101495.95
2018-09-24T12:27:45.052Z,101501.52
2018-09-24T12:30:19.752Z,101485.35
2018-09-24T12:32:53.717Z,101485.39
2018-09-24T12:35:27.581Z,101492.51
2018-09-24T12:38:01.534Z,101483.00
2018-09-24T12:40:35.325Z,101483.74
2018-09-24T12:43:09.282Z,101471.45
2018-09-24T12:45:43.955Z,101490.91
2018-09-24T12:48:18.110Z,101482.71
2018-09-24T12:50:52.234Z,101503.58
2018-09-24T12:56:06.056Z,101481.02
2018-09-24T12:58:40.033Z,101488.86
2018-09-24T13:01:14.021Z,101490.75
2018-09-24T13:03:48.082Z,101501.02
2018-09-24T13:06:22.090Z,101514.50
2018-09-24T13:08:55.976Z,101513.64
2018-09-24T13:11:29.948Z,101508.45
2018-09-24T13:14:03.839Z,101527.25
2018-09-24T13:16:38.301Z,101524.35
2018-09-24T13:19:13.767Z,101551.44
2018-09-24T13:21:48.240Z,101556.11
2018-09-24T13:24:22.471Z,101564.58
2018-09-24T13:26:56.517Z,101577.92
2018-09-24T13:29:30.590Z,101563.70
2018-09-24T13:32:04.547Z,101602.70
2018-09-24T13:34:38.737Z,101612.41
2018-09-24T13:37:13.317Z,101600.92
2018-09-24T13:39:47.248Z,101588.88
2018-09-24T13:42:21.217Z,101587.67
2018-09-24T13:44:55.267Z,101586.78
2018-09-24T13:47:29.345Z,101586.89
2018-09-24T13:50:04.276Z,101588.48
2018-09-24T13:52:38.357Z,101579.84
2018-09-24T13:55:14.654Z,101588.03
2018-09-24T13:57:48.759Z,101584.83
2018-09-24T14:00:22.798Z,101588.00
2018-09-24T14:02:56.755Z,101578.75
2018-09-24T14:05:30.715Z,101582.50
2018-09-24T14:08:05.261Z,101580.45
2018-09-24T14:10:51.277Z,101573.33
2018-09-24T14:13:25.386Z,101579.42
2018-09-24T14:15:59.473Z,101582.45
2018-09-24T14:18:33.536Z,101582.59
2018-09-24T14:21:07.564Z,101586.06
2018-09-24T14:23:41.667Z,101588.31
2018-09-24T14:26:15.823Z,101586.83
2018-09-24T14:28:49.751Z,101591.14
2018-09-24T14:31:23.741Z,101607.53
2018-09-24T14:33:57.808Z,101600.05
2018-09-24T14:36:31.974Z,101601.27
2018-09-24T14:39:06.768Z,101598.07
2018-09-24T14:41:41.251Z,101605.05
2018-09-24T14:44:15.337Z,101599.53
2018-09-24T14:46:49.524Z,101594.33
2018-09-24T14:49:23.588Z,101592.75
2018-09-24T14:51:57.510Z,101604.36
2018-09-24T14:54:31.577Z,101583.14
2018-09-24T14:57:05.612Z,101600.15
2018-09-24T14:59:40.068Z,101598.05
2018-09-24T15:02:14.900Z,101589.06
2018-09-24T15:04:48.954Z,101594.55
2018-09-24T15:07:22.855Z,101595.73
2018-09-24T15:09:56.845Z,101593.64
2018-09-24T15:12:30.967Z,101610.41
2018-09-24T15:15:05.658Z,101610.36
2018-09-24T15:17:39.700Z,101617.37
2018-09-24T15:20:14.397Z,101612.77
2018-09-24T15:22:48.506Z,101605.67
2018-09-24T15:25:22.582Z,101613.70
2018-09-24T15:27:57.166Z,101612.60
2018-09-24T15:30:31.320Z,101609.27
2018-09-24T15:33:05.436Z,101603.25
2018-09-24T15:35:39.634Z,101606.16
2018-09-24T15:38:13.577Z,101602.38
2018-09-24T15:40:47.667Z,101610.02
2018-09-24T15:43:21.579Z,101601.22
2018-09-24T15:45:55.596Z,101603.42
2018-09-24T15:48:29.637Z,101593.16
2018-09-24T15:51:03.562Z,101600.82
2018-09-24T15:53:38.303Z,101604.94
2018-09-24T15:56:12.413Z,101603.28
2018-09-24T15:58:46.720Z,101609.86
2018-09-24T16:01:22.362Z,101614.44
2018-09-24T16:03:56.528Z,101611.80
2018-09-24T16:06:30.996Z,101614.81
2018-09-24T16:09:05.486Z,101613.83
2018-09-24T16:11:40.239Z,101610.97
2018-09-24T16:14:14.083Z,101614.89
2018-09-24T16:16:47.928Z,101617.23
2018-09-24T16:19:23.057Z,101602.11
2018-09-24T16:21:57.084Z,101619.12
2018-09-24T16:24:31.010Z,101614.60
2018-09-24T16:27:05.088Z,101611.19
2018-09-24T16:29:40.135Z,101616.56
2018-09-24T16:32:14.189Z,101615.15
2018-09-24T16:34:48.404Z,101616.05
2018-09-24T16:37:22.513Z,101608.35
2018-09-24T16:39:57.436Z,101612.03
2018-09-24T16:42:31.490Z,101618.17
2018-09-24T16:45:06.935Z,101614.27
2018-09-24T16:47:40.816Z,101612.48
2018-09-24T16:50:16.114Z,101620.27
2018-09-24T16:52:50.223Z,101616.54
2018-09-24T16:55:24.092Z,101620.13
2018-09-24T16:57:58.327Z,101625.47
2018-09-24T17:00:32.494Z,101618.41
2018-09-24T17:03:06.358Z,101627.88
2018-09-24T17:05:40.505Z,101628.19
2018-09-24T17:08:14.385Z,101624.78
2018-09-24T17:10:48.463Z,101630.34
2018-09-24T17:13:22.524Z,101625.84
2018-09-24T17:15:56.633Z,101631.20
2018-09-24T17:18:30.524Z,101634.05
2018-09-24T17:21:04.960Z,101637.27
2018-09-24T17:23:38.925Z,101641.52
2018-09-24T17:26:12.886Z,101644.16
2018-09-24T17:28:46.681Z,101646.02
2018-09-24T17:31:20.872Z,101654.58
2018-09-24T17:33:55.219Z,101660.58
2018-09-24T17:36:29.462Z,101655.06
2018-09-24T17:39:03.659Z,101658.25
2018-09-24T17:41:44.683Z,101667.87
2018-09-24T17:44:18.654Z,101672.26
2018-09-24T17:46:52.763Z,101668.86
2018-09-24T17:49:26.766Z,101684.30
2018-09-24T17:52:00.817Z,101685.87
2018-09-24T17:54:35.756Z,101688.52
2018-09-24T17:57:09.781Z,101701.72
2018-09-24T17:59:44.161Z,101700.70
2018-09-24T18:02:18.877Z,101701.48
2018-09-24T18:04:52.808Z,101707.39
2018-09-24T18:07:26.727Z,101712.29
2018-09-24T18:10:00.721Z,101714.31
2018-09-24T18:12:34.831Z,101724.38
2018-09-24T18:15:08.941Z,101721.90
2018-09-24T18:17:42.953Z,101735.00
2018-09-24T18:20:17.017Z,101731.42
2018-09-24T18:22:51.063Z,101736.78
2018-09-24T18:25:24.942Z,101728.95
2018-09-24T18:27:59.259Z,101730.98
2018-09-24T18:30:33.020Z,101741.94
2018-09-24T18:33:06.981Z,101748.91
2018-09-24T18:35:42.357Z,101741.94
2018-09-24T18:38:16.287Z,101733.00
2018-09-24T18:40:50.371Z,101751.95
2018-09-24T18:43:24.493Z,101757.61
2018-09-24T18:45:58.383Z,101765.44
2018-09-24T18:48:33.382Z,101754.02
2018-09-24T18:51:07.672Z,101757.77
2018-09-24T18:53:41.892Z,101762.42
2018-09-24T18:56:16.150Z,101774.50
2018-09-24T18:58:50.154Z,101773.33
2018-09-24T19:01:25.310Z,101775.97
2018-09-24T19:04:00.648Z,101774.48
2018-09-24T19:06:34.739Z,101770.96
2018-09-24T19:09:09.510Z,101777.80
2018-09-24T19:11:45.072Z,101783.87
2018-09-24T19:14:19.006Z,101781.33
2018-09-24T19:16:53.169Z,101783.06
2018-09-24T19:19:29.577Z,101786.30
2018-09-24T19:22:04.126Z,101793.20
2018-09-24T19:24:38.311Z,101803.19
2018-09-24T19:27:13.257Z,101802.63
2018-09-24T19:29:49.228Z,101816.80
2018-09-24T19:32:26.664Z,101823.23
2018-09-24T19:35:02.853Z,101822.52
2018-09-24T19:37:37.677Z,101827.53
2018-09-24T19:40:13.119Z,101829.59
2018-09-24T19:42:49.746Z,101840.47
2018-09-24T19:45:25.652Z,101840.77
2018-09-24T19:48:00.446Z,101847.23
2018-09-24T19:50:37.759Z,101849.95
2018-09-24T19:53:12.250Z,101849.08
2018-09-24T19:55:46.496Z,101851.13
2018-09-24T19:58:26.638Z,101852.45
2018-09-24T20:01:03.232Z,101862.34
2018-09-24T20:03:38.036Z,101863.94
2018-09-24T20:06:11.960Z,101863.80
2018-09-24T20:08:46.475Z,101865.53
2018-09-24T20:11:21.715Z,101871.42
2018-09-24T20:13:55.516Z,101871.77
2018-09-24T20:16:29.514Z,101878.28
2018-09-24T20:19:03.628Z,101880.53
2018-09-24T20:21:38.557Z,101875.52
2018-09-24T20:24:12.723Z,101875.34
2018-09-24T20:26:46.743Z,101889.02
2018-09-24T20:29:20.582Z,101884.69
2018-09-24T20:31:54.646Z,101886.53
2018-09-24T20:37:09.849Z,101882.76
2018-09-24T20:39:43.908Z,101896.52
2018-09-24T20:42:18.056Z,101897.11
2018-09-24T20:47:42.021Z,101894.68
2018-09-24T20:50:15.910Z,101893.22
2018-09-24T20:52:49.879Z,101896.93
2018-09-24T20:55:23.623Z,101895.79
2018-09-24T20:57:57.498Z,101900.26
2018-09-24T21:00:31.397Z,101909.23
2018-09-24T21:03:05.228Z,101894.16
2018-09-24T21:05:39.307Z,101904.34
2018-09-24T21:08:13.328Z,101914.59
2018-09-24T21:10:47.328Z,101911.88
2018-09-24T21:13:21.415Z,101910.92
2018-09-24T21:15:55.710Z,101921.31
2018-09-24T21:18:30.516Z,101920.85
2018-09-24T21:21:08.878Z,101916.55
2018-09-24T21:23:43.269Z,101930.52
2018-09-24T21:26:18.747Z,101934.17
2018-09-24T21:28:52.892Z,101940.38
2018-09-24T21:31:27.284Z,101938.77
2018-09-24T21:34:01.385Z,101941.41
2018-09-24T21:36:35.265Z,101945.03
2018-09-24T21:39:09.462Z,101939.93
2018-09-24T21:41:44.306Z,101946.52
2018-09-24T21:44:18.817Z,101948.50
2018-09-24T21:46:52.964Z,101955.08
2018-09-24T21:49:27.660Z,101968.66
2018-09-24T21:52:03.242Z,101952.86
2018-09-24T21:54:39.023Z,101956.33
2018-09-24T21:57:13.027Z,101950.33
2018-09-24T21:59:48.498Z,101955.72
2018-09-24T22:02:22.727Z,101965.45
2018-09-24T22:04:57.120Z,101976.91
2018-09-24T22:07:32.799Z,101975.87
2018-09-24T22:10:06.693Z,101990.06
2018-09-24T22:12:40.837Z,101988.36
2018-09-24T22:15:14.963Z,101984.92
2018-09-24T22:17:49.203Z,101995.45
2018-09-24T22:20:23.270Z,102000.36
2018-09-24T22:22:57.360Z,102007.00
2018-09-24T22:25:31.305Z,102008.95
2018-09-24T22:28:05.247Z,102004.37
2018-09-24T22:30:39.416Z,102014.38
2018-09-24T22:33:13.335Z,102019.23
2018-09-24T22:35:47.706Z,102021.86
2018-09-24T22:38:21.507Z,102034.23
2018-09-24T22:40:55.462Z,102033.02
2018-09-24T22:43:29.539Z,102029.24
2018-09-24T22:46:03.558Z,102029.02
2018-09-24T22:48:37.472Z,102029.86
2018-09-24T22:51:11.631Z,102035.47
2018-09-24T22:53:45.971Z,102032.91
2018-09-24T22:56:20.087Z,102034.16
2018-09-24T22:58:54.159Z,102032.55
2018-09-24T23:01:28.514Z,102033.61
2018-09-24T23:04:02.605Z,102038.06
2018-09-24T23:06:36.548Z,102040.63
2018-09-24T23:09:13.097Z,102036.87
2018-09-24T23:11:47.307Z,102043.90
2018-09-24T23:14:21.312Z,102036.16
2018-09-24T23:16:55.220Z,102035.27
2018-09-24T23:19:29.396Z,102044.47
2018-09-24T23:22:03.406Z,102050.24
2018-09-24T23:24:37.396Z,102052.75
2018-09-24T23:27:11.645Z,102055.67
2018-09-24T23:29:47.518Z,102062.55
2018-09-24T23:32:21.717Z,102065.81
2018-09-24T23:34:55.792Z,102072.66
2018-09-24T23:37:29.718Z,102070.42
2018-09-24T23:40:03.753Z,102071.92
2018-09-24T23:42:37.736Z,102075.18
2018-09-24T23:45:12.350Z,102077.30
2018-09-24T23:47:46.300Z,102076.88
2018-09-24T23:50:20.585Z,102087.83
2018-09-24T23:53:07.759Z,102083.27
2018-09-24T23:55:42.102Z,102090.95
2018-09-24T23:58:16.108Z,102095.73
